createdAt,value
2022-11-17T00:00:43.228Z,1.20
2022-11-17T00:03:16.591Z,1.20
2022-11-17T00:05:44.895Z,1.21
2022-11-17T00:08:12.237Z,1.11
2022-11-17T00:10:39.826Z,1.10
2022-11-17T00:13:25.378Z,1.12
2022-11-17T00:15:52.854Z,1.08
2022-11-17T00:18:38.547Z,1.07
2022-11-17T00:21:21.773Z,1.02
2022-11-17T00:23:50.359Z,1.09
2022-11-17T00:26:24.006Z,1.04
2022-11-17T00:28:58.786Z,1.00
2022-11-17T00:31:47.670Z,1.00
2022-11-17T00:34:17.921Z,1.02
2022-11-17T00:36:48.673Z,1.08
2022-11-17T00:39:17.435Z,1.12
2022-11-17T00:41:44.993Z,1.16
2022-11-17T00:44:12.480Z,1.16
2022-11-17T00:46:40.519Z,1.11
2022-11-17T00:49:09.112Z,1.12
2022-11-17T00:51:37.056Z,1.12
2022-11-17T00:54:05.299Z,1.14
2022-11-17T00:56:33.788Z,1.15
2022-11-17T00:59:01.211Z,1.12
2022-11-17T01:01:30.180Z,1.20
2022-11-17T01:04:05.527Z,1.09
2022-11-17T01:06:44.736Z,1.14
2022-11-17T01:09:20.761Z,1.15
2022-11-17T01:11:49.651Z,1.15
2022-11-17T01:14:20.685Z,1.13
2022-11-17T01:16:48.221Z,1.10
2022-11-17T01:19:16.247Z,1.09
2022-11-17T01:21:44.196Z,1.19
2022-11-17T01:24:12.673Z,1.06
2022-11-17T01:26:40.477Z,1.05
2022-11-17T01:29:08.785Z,1.07
2022-11-17T01:31:38.850Z,1.08
2022-11-17T01:34:07.503Z,1.16
2022-11-17T01:36:56.418Z,1.11
2022-11-17T01:39:25.031Z,1.12
2022-11-17T01:41:53.597Z,1.07
2022-11-17T01:44:35.961Z,1.06
2022-11-17T01:47:05.137Z,1.08
2022-11-17T01:49:33.181Z,1.16
2022-11-17T01:52:06.247Z,1.24
2022-11-17T01:54:35.565Z,1.26
2022-11-17T01:57:08.055Z,1.01
2022-11-17T01:59:49.036Z,1.10
2022-11-17T02:02:16.947Z,1.16
2022-11-17T02:04:53.577Z,1.10
2022-11-17T02:07:31.333Z,1.10
2022-11-17T02:09:59.735Z,1.10
2022-11-17T02:12:27.542Z,1.06
2022-11-17T02:14:55.333Z,1.14
2022-11-17T02:17:24.646Z,1.13
2022-11-17T02:20:10.757Z,1.13
2022-11-17T02:22:41.073Z,1.07
2022-11-17T02:25:40.470Z,1.12
2022-11-17T02:28:25.162Z,1.13
2022-11-17T02:30:58.197Z,1.15
2022-11-17T02:33:37.806Z,1.09
2022-11-17T02:36:13.773Z,1.00
2022-11-17T02:38:50.098Z,0.97
2022-11-17T02:41:24.988Z,1.11
2022-11-17T02:44:08.409Z,0.96
2022-11-17T02:46:48.509Z,1.06
2022-11-17T02:49:47.242Z,0.96
2022-11-17T02:52:17.834Z,1.01
2022-11-17T02:54:45.249Z,1.14
2022-11-17T02:57:29.376Z,1.12
2022-11-17T03:00:00.217Z,1.06
2022-11-17T03:02:30.068Z,0.94
2022-11-17T03:05:18.957Z,0.99
2022-11-17T03:08:19.373Z,0.85
2022-11-17T03:11:13.649Z,0.88
2022-11-17T03:13:52.343Z,0.88
2022-11-17T03:16:42.165Z,0.92
2022-11-17T03:19:24.134Z,0.97
2022-11-17T03:22:12.827Z,0.97
2022-11-17T03:24:58.268Z,1.02
2022-11-17T03:27:30.813Z,1.02
2022-11-17T03:30:02.021Z,0.93
2022-11-17T03:32:34.517Z,1.01
2022-11-17T03:35:07.679Z,0.86
2022-11-17T03:37:39.754Z,0.96
2022-11-17T03:40:11.115Z,1.08
2022-11-17T03:42:43.351Z,1.03
2022-11-17T03:45:19.488Z,1.00
2022-11-17T03:47:56.186Z,0.98
2022-11-17T03:50:40.654Z,0.94
2022-11-17T03:53:08.207Z,0.85
2022-11-17T03:55:41.059Z,0.88
2022-11-17T03:58:14.791Z,0.77
2022-11-17T04:00:43.131Z,0.76
2022-11-17T04:03:10.661Z,0.92
2022-11-17T04:05:37.796Z,0.76
2022-11-17T04:08:05.428Z,0.77
2022-11-17T04:10:52.580Z,0.73
2022-11-17T04:13:38.799Z,0.79
2022-11-17T04:16:06.134Z,0.68
2022-11-17T04:18:33.637Z,0.75
2022-11-17T04:21:00.966Z,0.73
2022-11-17T04:23:28.440Z,0.80
2022-11-17T04:26:15.791Z,0.86
2022-11-17T04:28:46.768Z,0.79
2022-11-17T04:31:18.174Z,0.71
2022-11-17T04:33:52.532Z,0.68
2022-11-17T04:36:28.427Z,0.61
2022-11-17T04:38:58.362Z,0.55
2022-11-17T04:41:47.401Z,0.70
2022-11-17T04:44:17.776Z,0.78
2022-11-17T04:46:46.194Z,0.70
2022-11-17T04:49:15.701Z,0.65
2022-11-17T04:51:43.082Z,0.71
2022-11-17T04:54:13.223Z,0.63
2022-11-17T04:56:40.587Z,0.67
2022-11-17T04:59:08.470Z,0.52
2022-11-17T05:01:36.124Z,0.56
2022-11-17T05:04:09.207Z,0.55
2022-11-17T05:06:37.828Z,0.54
2022-11-17T05:09:11.403Z,0.48
2022-11-17T05:11:57.521Z,0.47
2022-11-17T05:14:26.483Z,0.49
2022-11-17T05:17:10.821Z,0.62
2022-11-17T05:19:46.709Z,0.49
2022-11-17T05:22:37.992Z,0.41
2022-11-17T05:25:06.318Z,0.72
2022-11-17T05:27:36.859Z,0.51
2022-11-17T05:30:06.961Z,0.61
2022-11-17T05:32:34.277Z,0.64
2022-11-17T05:35:01.843Z,0.70
2022-11-17T05:37:29.333Z,0.70
2022-11-17T05:39:56.819Z,0.53
2022-11-17T05:42:23.988Z,0.76
2022-11-17T05:44:51.495Z,0.54
2022-11-17T05:47:18.728Z,0.54
2022-11-17T05:49:46.249Z,0.71
2022-11-17T05:52:13.420Z,0.54
2022-11-17T05:54:40.884Z,0.50
2022-11-17T05:57:15.064Z,0.56
2022-11-17T05:59:54.663Z,0.43
2022-11-17T06:02:30.293Z,0.39
2022-11-17T06:04:57.769Z,0.36
2022-11-17T06:07:25.376Z,0.32
2022-11-17T06:09:53.389Z,0.37
2022-11-17T06:12:20.896Z,0.27
2022-11-17T06:14:48.131Z,0.28
2022-11-17T06:17:34.666Z,0.36
2022-11-17T06:20:08.629Z,0.43
2022-11-17T06:22:36.583Z,0.41
2022-11-17T06:25:05.228Z,0.28
2022-11-17T06:27:34.088Z,0.43
2022-11-17T06:30:03.721Z,0.45
2022-11-17T06:32:34.990Z,0.45
2022-11-17T06:35:06.473Z,0.40
2022-11-17T06:37:34.010Z,0.53
2022-11-17T06:40:01.253Z,0.54
2022-11-17T06:42:47.307Z,0.48
2022-11-17T06:45:14.992Z,0.53
2022-11-17T06:47:42.422Z,0.44
2022-11-17T06:50:10.333Z,0.42
2022-11-17T06:52:39.000Z,0.42
2022-11-17T06:55:06.913Z,0.39
2022-11-17T06:57:34.440Z,0.50
2022-11-17T07:00:01.699Z,0.48
2022-11-17T07:02:31.558Z,0.54
2022-11-17T07:04:58.716Z,0.55
2022-11-17T07:07:26.305Z,0.40
2022-11-17T07:09:53.568Z,0.46
2022-11-17T07:12:21.196Z,0.59
2022-11-17T07:14:48.396Z,0.41
2022-11-17T07:17:15.914Z,0.46
2022-11-17T07:19:43.156Z,0.46
2022-11-17T07:22:10.718Z,0.39
2022-11-17T07:24:38.008Z,0.34
2022-11-17T07:27:06.616Z,0.43
2022-11-17T07:29:33.891Z,0.38
2022-11-17T07:32:01.550Z,0.55
2022-11-17T07:34:28.739Z,0.46
2022-11-17T07:36:56.306Z,0.32
2022-11-17T07:39:23.475Z,0.39
2022-11-17T07:41:51.038Z,0.55
2022-11-17T07:44:18.294Z,0.54
2022-11-17T07:46:45.793Z,0.48
2022-11-17T07:49:13.242Z,0.45
2022-11-17T07:51:40.772Z,0.33
2022-11-17T07:54:08.308Z,0.35
2022-11-17T07:56:36.184Z,0.56
2022-11-17T07:59:03.453Z,0.62
2022-11-17T08:01:31.728Z,0.48
2022-11-17T08:03:59.094Z,0.29
2022-11-17T08:06:26.720Z,0.41
2022-11-17T08:08:54.549Z,0.53
2022-11-17T08:11:22.195Z,0.55
2022-11-17T08:13:50.852Z,0.61
2022-11-17T08:16:18.716Z,0.53
2022-11-17T08:18:51.796Z,0.53
2022-11-17T08:21:20.137Z,0.25
2022-11-17T08:23:51.993Z,0.60
2022-11-17T08:26:23.762Z,0.50
2022-11-17T08:28:56.719Z,0.57
2022-11-17T08:31:26.047Z,0.67
2022-11-17T08:33:53.391Z,0.57
2022-11-17T08:36:21.087Z,0.55
2022-11-17T08:38:48.279Z,0.71
2022-11-17T08:41:15.922Z,0.71
2022-11-17T08:43:43.270Z,0.69
2022-11-17T08:46:12.549Z,0.52
2022-11-17T08:48:40.708Z,0.50
2022-11-17T08:51:09.232Z,0.51
2022-11-17T08:53:36.471Z,0.59
2022-11-17T08:56:08.717Z,0.77
2022-11-17T08:58:43.511Z,0.77
2022-11-17T09:01:13.527Z,0.79
2022-11-17T09:03:42.046Z,0.70
2022-11-17T09:06:10.991Z,0.80
2022-11-17T09:08:45.506Z,0.84
2022-11-17T09:11:14.657Z,0.73
2022-11-17T09:13:42.384Z,0.58
2022-11-17T09:16:11.715Z,0.70
2022-11-17T09:18:41.187Z,0.59
2022-11-17T09:21:11.636Z,0.71
2022-11-17T09:23:39.374Z,0.72
2022-11-17T09:26:10.116Z,0.56
2022-11-17T09:28:38.129Z,0.62
2022-11-17T09:31:17.989Z,0.80
2022-11-17T09:33:45.768Z,0.77
2022-11-17T09:36:15.485Z,0.78
2022-11-17T09:38:42.737Z,0.76
2022-11-17T09:41:16.083Z,0.76
2022-11-17T09:43:50.203Z,0.76
2022-11-17T09:46:28.452Z,0.74
2022-11-17T09:49:05.976Z,0.87
2022-11-17T09:51:37.489Z,0.94
2022-11-17T09:54:22.233Z,0.87
2022-11-17T09:56:51.417Z,1.09
2022-11-17T09:59:21.604Z,1.08
2022-11-17T10:01:49.402Z,1.03
2022-11-17T10:04:17.231Z,1.17
2022-11-17T10:06:48.551Z,1.01
2022-11-17T10:09:36.825Z,1.32
2022-11-17T10:12:20.788Z,1.48
2022-11-17T10:14:49.481Z,1.17
2022-11-17T10:17:17.508Z,1.15
2022-11-17T10:19:47.648Z,1.07
2022-11-17T10:22:36.301Z,1.65
2022-11-17T10:25:03.813Z,1.56
2022-11-17T10:27:34.172Z,1.53
2022-11-17T10:30:20.914Z,1.50
2022-11-17T10:32:51.361Z,1.32
2022-11-17T10:35:27.020Z,1.14
2022-11-17T10:37:59.281Z,1.42
2022-11-17T10:40:32.167Z,1.41
2022-11-17T10:43:27.413Z,1.68
2022-11-17T10:45:59.025Z,1.80
2022-11-17T10:48:36.254Z,1.88
2022-11-17T10:51:15.546Z,1.94
2022-11-17T10:53:46.516Z,1.91
2022-11-17T10:56:19.154Z,1.92
2022-11-17T10:59:02.118Z,2.09
2022-11-17T11:01:36.330Z,3.06
2022-11-17T11:04:07.139Z,3.02
2022-11-17T11:06:35.675Z,2.06
2022-11-17T11:09:06.311Z,2.11
2022-11-17T11:11:58.019Z,2.33
2022-11-17T11:15:04.985Z,1.97
2022-11-17T11:17:32.678Z,2.49
2022-11-17T11:20:01.094Z,1.68
2022-11-17T11:22:32.457Z,1.93
2022-11-17T11:25:03.097Z,1.80
2022-11-17T11:27:55.564Z,1.70
2022-11-17T11:30:23.024Z,1.92
2022-11-17T11:33:37.991Z,1.81
2022-11-17T11:36:31.574Z,1.83
2022-11-17T11:39:40.208Z,2.31
2022-11-17T11:42:10.607Z,2.75
2022-11-17T11:44:57.807Z,2.56
2022-11-17T11:47:59.394Z,2.21
2022-11-17T11:50:49.392Z,1.84
2022-11-17T11:53:37.744Z,2.15
2022-11-17T11:56:15.676Z,2.35
2022-11-17T11:58:50.192Z,1.80
2022-11-17T12:01:20.887Z,2.28
2022-11-17T12:03:54.208Z,3.12
2022-11-17T12:06:41.675Z,2.84
2022-11-17T12:09:40.105Z,2.47
2022-11-17T12:12:13.797Z,3.27
2022-11-17T12:15:12.944Z,2.33
2022-11-17T12:17:52.657Z,2.21
2022-11-17T12:20:31.985Z,2.25
2022-11-17T12:23:08.750Z,1.99
2022-11-17T12:25:43.660Z,2.41
2022-11-17T12:28:39.186Z,2.85
2022-11-17T12:31:10.832Z,2.97
2022-11-17T12:33:54.130Z,3.18
2022-11-17T12:36:30.200Z,3.21
2022-11-17T12:39:01.241Z,3.69
2022-11-17T12:41:48.684Z,3.69
2022-11-17T12:44:38.433Z,4.09
2022-11-17T12:47:11.130Z,3.79
2022-11-17T12:49:55.319Z,3.25
2022-11-17T12:52:57.972Z,3.61
2022-11-17T12:55:46.643Z,3.94
2022-11-17T12:58:53.064Z,4.01
2022-11-17T13:02:01.257Z,3.34
2022-11-17T13:04:43.754Z,3.53
2022-11-17T13:07:22.073Z,3.40
2022-11-17T13:09:52.598Z,3.39
2022-11-17T13:12:25.737Z,3.71
2022-11-17T13:15:04.366Z,3.81
2022-11-17T13:17:38.990Z,3.30
2022-11-17T13:20:21.143Z,3.13
2022-11-17T13:23:21.316Z,3.20
2022-11-17T13:25:50.005Z,3.09
2022-11-17T13:28:44.384Z,3.17
2022-11-17T13:31:20.161Z,3.08
2022-11-17T13:34:07.242Z,3.02
2022-11-17T13:36:35.057Z,2.81
2022-11-17T13:39:03.442Z,2.77
2022-11-17T13:41:40.376Z,2.50
2022-11-17T13:44:16.987Z,2.28
2022-11-17T13:46:44.446Z,2.41
2022-11-17T13:49:33.761Z,2.05
2022-11-17T13:52:02.488Z,1.94
2022-11-17T13:54:30.568Z,1.87
2022-11-17T13:57:07.510Z,1.83
2022-11-17T13:59:38.305Z,1.72
2022-11-17T14:02:19.510Z,1.71
2022-11-17T14:05:16.903Z,1.59
2022-11-17T14:07:45.277Z,1.68
2022-11-17T14:10:21.993Z,1.56
2022-11-17T14:13:08.867Z,1.57
2022-11-17T14:15:38.740Z,1.56
2022-11-17T14:18:23.614Z,1.56
2022-11-17T14:21:05.368Z,1.38
2022-11-17T14:23:32.509Z,1.32
2022-11-17T14:26:00.098Z,1.18
2022-11-17T14:28:28.030Z,1.23
2022-11-17T14:30:57.344Z,1.02
2022-11-17T14:33:24.942Z,1.02
2022-11-17T14:36:00.031Z,0.73
2022-11-17T14:38:27.310Z,0.66
2022-11-17T14:40:55.165Z,0.58
2022-11-17T14:43:22.839Z,0.68
2022-11-17T14:45:50.467Z,0.77
2022-11-17T14:48:19.268Z,0.58
2022-11-17T14:50:47.770Z,0.49
2022-11-17T14:53:15.386Z,0.58
2022-11-17T14:55:42.819Z,0.34
2022-11-17T14:58:10.200Z,0.38
2022-11-17T15:00:37.837Z,0.37
2022-11-17T15:03:05.171Z,0.15
2022-11-17T15:05:32.773Z,0.18
2022-11-17T15:08:00.245Z,0.08
2022-11-17T15:10:27.743Z,0.11
2022-11-17T15:12:55.800Z,-0.02
2022-11-17T15:15:23.357Z,-0.04
2022-11-17T15:17:50.547Z,-0.10
2022-11-17T15:20:18.138Z,-0.05
2022-11-17T15:22:45.370Z,-0.04
2022-11-17T15:25:12.848Z,0.10
2022-11-17T15:27:40.210Z,-0.13
2022-11-17T15:30:08.420Z,-0.17
2022-11-17T15:32:36.896Z,-0.19
2022-11-17T15:35:04.798Z,-0.36
2022-11-17T15:37:31.898Z,-0.11
2022-11-17T15:39:59.441Z,-0.07
2022-11-17T15:42:26.609Z,-0.18
2022-11-17T15:44:54.188Z,-0.41
2022-11-17T15:47:21.299Z,-0.38
2022-11-17T15:49:48.816Z,-0.42
2022-11-17T15:52:17.502Z,-0.58
2022-11-17T15:54:46.962Z,-0.79
2022-11-17T15:57:14.168Z,-0.98
2022-11-17T15:59:41.826Z,-0.69
2022-11-17T16:02:09.831Z,-0.53
2022-11-17T16:04:37.512Z,-0.60
2022-11-17T16:07:04.932Z,-0.86
2022-11-17T16:09:34.644Z,-0.94
2022-11-17T16:12:02.687Z,-0.96
2022-11-17T16:14:30.519Z,-1.02
2022-11-17T16:16:58.287Z,-0.76
2022-11-17T16:19:26.407Z,-0.74
2022-11-17T16:21:54.055Z,-0.86
2022-11-17T16:24:21.897Z,-0.85
2022-11-17T16:26:49.409Z,-1.11
2022-11-17T16:29:17.750Z,-0.78
2022-11-17T16:31:45.645Z,-0.87
2022-11-17T16:34:15.724Z,-0.93
2022-11-17T16:36:43.992Z,-0.93
2022-11-17T16:39:17.493Z,-1.03
2022-11-17T16:41:46.077Z,-0.92
2022-11-17T16:44:18.497Z,-0.82
2022-11-17T16:46:48.442Z,-0.91
2022-11-17T16:49:18.081Z,-0.77
2022-11-17T16:51:51.544Z,-0.87
2022-11-17T16:54:20.420Z,-0.85
2022-11-17T16:56:48.263Z,-0.67
2022-11-17T16:59:16.987Z,-1.05
2022-11-17T17:01:45.037Z,-1.04
2022-11-17T17:04:13.855Z,-0.98
2022-11-17T17:06:43.717Z,-0.83
2022-11-17T17:09:13.653Z,-0.90
2022-11-17T17:11:41.521Z,-0.87
2022-11-17T17:14:13.212Z,-0.84
2022-11-17T17:16:41.763Z,-0.96
2022-11-17T17:19:12.334Z,-0.86
2022-11-17T17:21:41.711Z,-0.96
2022-11-17T17:24:10.632Z,-0.94
2022-11-17T17:26:40.440Z,-1.02
2022-11-17T17:29:09.388Z,-1.04
2022-11-17T17:31:39.425Z,-0.96
2022-11-17T17:34:08.531Z,-1.08
2022-11-17T17:36:37.577Z,-1.12
2022-11-17T17:39:06.430Z,-1.03
2022-11-17T17:41:38.834Z,-1.05
2022-11-17T17:44:09.068Z,-1.07
2022-11-17T17:46:39.515Z,-1.18
2022-11-17T17:49:07.685Z,-1.22
2022-11-17T17:51:43.357Z,-1.31
2022-11-17T17:54:20.939Z,-1.44
2022-11-17T17:56:48.957Z,-1.49
2022-11-17T17:59:17.470Z,-1.54
2022-11-17T18:01:47.847Z,-1.41
2022-11-17T18:04:16.892Z,-1.25
2022-11-17T18:06:48.880Z,-1.19
2022-11-17T18:09:20.854Z,-1.22
2022-11-17T18:11:51.034Z,-1.17
2022-11-17T18:14:24.273Z,-1.00
2022-11-17T18:16:53.426Z,-0.89
2022-11-17T18:19:21.382Z,-0.85
2022-11-17T18:21:49.284Z,-0.72
2022-11-17T18:24:17.487Z,-0.72
2022-11-17T18:26:45.082Z,-0.89
2022-11-17T18:29:18.395Z,-0.78
2022-11-17T18:31:47.720Z,-0.69
2022-11-17T18:34:21.370Z,-0.58
2022-11-17T18:36:49.957Z,-0.66
2022-11-17T18:39:18.140Z,-0.62
2022-11-17T18:41:45.776Z,-0.61
2022-11-17T18:44:15.445Z,-0.72
2022-11-17T18:46:43.151Z,-0.59
2022-11-17T18:49:11.675Z,-0.63
2022-11-17T18:51:40.000Z,-0.46
2022-11-17T18:54:08.258Z,-0.66
2022-11-17T18:56:37.742Z,-0.58
2022-11-17T18:59:12.227Z,-0.55
2022-11-17T19:01:42.578Z,-0.59
2022-11-17T19:04:15.164Z,-0.54
2022-11-17T19:06:43.084Z,-0.51
2022-11-17T19:09:13.738Z,-0.57
2022-11-17T19:11:41.999Z,-0.61
2022-11-17T19:14:10.238Z,-0.48
2022-11-17T19:16:44.004Z,-0.51
2022-11-17T19:19:14.105Z,-0.48
2022-11-17T19:21:43.051Z,-0.46
2022-11-17T19:24:11.529Z,-0.34
2022-11-17T19:26:38.999Z,-0.52
2022-11-17T19:29:16.197Z,-0.47
2022-11-17T19:31:45.062Z,-0.38
2022-11-17T19:34:13.083Z,-0.39
2022-11-17T19:36:41.197Z,-0.40
2022-11-17T19:39:11.572Z,-0.39
2022-11-17T19:41:39.928Z,-0.40
2022-11-17T19:44:08.956Z,-0.51
2022-11-17T19:46:37.185Z,-0.54
2022-11-17T19:49:06.185Z,-0.50
2022-11-17T19:51:36.580Z,-0.60
2022-11-17T19:54:09.353Z,-0.37
2022-11-17T19:56:36.992Z,-0.49
2022-11-17T19:59:06.163Z,-0.50
2022-11-17T20:01:33.885Z,-0.36
2022-11-17T20:04:02.245Z,-0.37
2022-11-17T20:06:36.205Z,-0.65
2022-11-17T20:09:12.572Z,-0.46
2022-11-17T20:11:41.443Z,-0.55
2022-11-17T20:14:09.421Z,-0.39
2022-11-17T20:16:38.899Z,-0.62
2022-11-17T20:19:06.827Z,-0.47
2022-11-17T20:21:34.916Z,-0.44
2022-11-17T20:24:03.347Z,-0.61
2022-11-17T20:26:32.637Z,-0.62
2022-11-17T20:29:01.425Z,-0.50
2022-11-17T20:31:31.647Z,-0.48
2022-11-17T20:34:01.037Z,-0.51
2022-11-17T20:36:31.539Z,-0.38
2022-11-17T20:39:01.573Z,-0.63
2022-11-17T20:41:29.814Z,-0.59
2022-11-17T20:43:59.438Z,-0.61
2022-11-17T20:46:27.299Z,-0.64
2022-11-17T20:48:55.075Z,-0.75
2022-11-17T20:51:25.000Z,-0.63
2022-11-17T20:53:53.621Z,-0.70
2022-11-17T20:56:21.219Z,-0.61
2022-11-17T20:58:49.404Z,-0.51
2022-11-17T21:01:20.402Z,-0.50
2022-11-17T21:03:49.384Z,-0.78
2022-11-17T21:06:17.256Z,-0.73
2022-11-17T21:08:46.230Z,-0.72
2022-11-17T21:11:35.548Z,-0.75
2022-11-17T21:14:05.800Z,-0.72
2022-11-17T21:16:34.041Z,-0.63
2022-11-17T21:19:01.652Z,-0.61
2022-11-17T21:21:29.556Z,-0.63
2022-11-17T21:23:57.255Z,-0.63
2022-11-17T21:26:24.937Z,-0.63
2022-11-17T21:28:52.678Z,-0.62
2022-11-17T21:31:23.985Z,-0.68
2022-11-17T21:33:54.088Z,-0.61
2022-11-17T21:36:21.972Z,-0.71
2022-11-17T21:38:50.068Z,-0.63
2022-11-17T21:41:23.193Z,-0.90
2022-11-17T21:43:52.433Z,-0.91
2022-11-17T21:46:22.172Z,-0.73
2022-11-17T21:48:50.833Z,-0.73
2022-11-17T21:51:23.088Z,-0.78
2022-11-17T21:53:55.787Z,-0.73
2022-11-17T21:56:26.648Z,-0.92
2022-11-17T21:58:58.028Z,-0.80
2022-11-17T22:01:26.134Z,-0.89
2022-11-17T22:03:53.886Z,-0.77
2022-11-17T22:06:24.261Z,-0.83
2022-11-17T22:08:54.550Z,-0.65
2022-11-17T22:11:38.470Z,-0.84
2022-11-17T22:14:12.693Z,-0.80
2022-11-17T22:16:48.226Z,-0.82
2022-11-17T22:19:17.612Z,-0.81
2022-11-17T22:21:48.812Z,-0.98
2022-11-17T22:24:16.882Z,-1.04
2022-11-17T22:26:44.855Z,-0.83
2022-11-17T22:29:21.605Z,-0.90
2022-11-17T22:31:49.904Z,-0.88
2022-11-17T22:34:18.725Z,-0.85
2022-11-17T22:36:46.216Z,-0.86
2022-11-17T22:39:13.836Z,-0.92
2022-11-17T22:41:41.345Z,-0.96
2022-11-17T22:44:13.818Z,-1.01
2022-11-17T22:46:42.015Z,-1.15
2022-11-17T22:49:10.461Z,-1.24
2022-11-17T22:51:56.199Z,-1.14
2022-11-17T22:54:23.920Z,-0.93
2022-11-17T22:56:51.025Z,-0.99
2022-11-17T22:59:19.008Z,-1.14
2022-11-17T23:01:46.453Z,-1.24
2022-11-17T23:04:15.028Z,-1.36
2022-11-17T23:06:43.427Z,-1.17
2022-11-17T23:09:11.536Z,-1.45
2022-11-17T23:11:38.933Z,-1.37
2022-11-17T23:14:09.216Z,-1.53
2022-11-17T23:16:37.777Z,-1.55
2022-11-17T23:19:06.089Z,-1.50
2022-11-17T23:21:33.685Z,-1.72
2022-11-17T23:24:01.433Z,-1.56
2022-11-17T23:26:28.709Z,-1.70
2022-11-17T23:28:56.209Z,-1.88
2022-11-17T23:31:23.390Z,-1.83
2022-11-17T23:33:50.989Z,-1.77
2022-11-17T23:36:21.295Z,-1.58
2022-11-17T23:38:50.393Z,-1.48
2022-11-17T23:41:20.500Z,-1.43
2022-11-17T23:43:52.931Z,-1.27
2022-11-17T23:46:24.597Z,-1.53
2022-11-17T23:48:52.979Z,-1.36
2022-11-17T23:51:22.350Z,-1.68
2022-11-17T23:53:50.481Z,-1.69
2022-11-17T23:56:20.575Z,-1.63
2022-11-17T23:58:48.741Z,-1.81
